Time;durP1;ratioP1;P1;durP2;ratioP2;P2;SDS_P1;SDS_P2;PMS_P1;PMS_P2;Temp;Humidity;BMP_temperature;BMP_pressure;BME280_temperature;BME280_humidity;BME280_pressure;Samples;Min_cycle;Max_cycle;Signal;HPM_P1;HPM_P2
2023/08/02 00:01:21;;;;;;;3.03;0.68;;;15.70;99.90;;;;;;5063409;28;20426;-71
2023/08/02 00:03:46;;;;;;;1.20;0.47;;;15.60;99.90;;;;;;5063262;28;20044;-71
2023/08/02 00:06:12;;;;;;;2.95;0.50;;;15.60;99.90;;;;;;5048054;28;20052;-71
2023/08/02 00:08:38;;;;;;;3.20;0.50;;;15.60;99.90;;;;;;5063953;28;20055;-71
2023/08/02 00:11:04;;;;;;;2.63;0.50;;;15.50;99.90;;;;;;5065106;28;20155;-71
2023/08/02 00:13:30;;;;;;;1.27;0.35;;;15.50;99.90;;;;;;5065408;28;20060;-71
2023/08/02 00:15:56;;;;;;;2.15;0.47;;;15.60;99.90;;;;;;5064503;28;20053;-71
2023/08/02 00:18:21;;;;;;;2.67;0.63;;;15.50;99.90;;;;;;5064277;28;20490;-71
2023/08/02 00:20:48;;;;;;;0.30;0.30;;;15.60;99.90;;;;;;5064190;28;20056;-71
2023/08/02 00:23:14;;;;;;;2.92;0.70;;;15.50;99.90;;;;;;5063986;28;20044;-71
2023/08/02 00:25:40;;;;;;;2.17;0.50;;;15.40;99.90;;;;;;5065529;28;20044;-71
2023/08/02 00:28:06;;;;;;;3.45;0.47;;;15.40;99.90;;;;;;5065031;28;20048;-71
2023/08/02 00:30:31;;;;;;;2.92;0.75;;;15.50;99.90;;;;;;5063803;28;20372;-71
2023/08/02 00:32:57;;;;;;;2.65;0.43;;;15.40;99.90;;;;;;5048315;28;20372;-71
2023/08/02 00:35:23;;;;;;;2.55;0.60;;;15.40;99.90;;;;;;5067009;28;20069;-71
2023/08/02 00:37:49;;;;;;;1.10;0.35;;;15.40;99.90;;;;;;5067643;28;20057;-71
2023/08/02 00:40:15;;;;;;;4.95;0.50;;;15.40;99.90;;;;;;5050934;28;20080;-71
2023/08/02 00:42:41;;;;;;;3.15;0.52;;;15.40;99.90;;;;;;5051358;28;20214;-71
2023/08/02 00:45:07;;;;;;;3.55;0.65;;;15.30;99.90;;;;;;5035065;28;20548;-71
2023/08/02 00:47:33;;;;;;;2.35;0.50;;;15.40;99.90;;;;;;5067542;28;20040;-71
2023/08/02 00:50:03;;;;;;;6.97;0.88;;;15.40;99.90;;;;;;5069213;28;20103;-71
2023/08/02 00:52:30;;;;;;;3.50;0.55;;;15.40;99.90;;;;;;5067488;28;20041;-71
2023/08/02 00:54:56;;;;;;;2.50;0.90;;;15.40;99.90;;;;;;5067653;28;20116;-71
2023/08/02 00:57:22;;;;;;;2.85;0.60;;;15.40;99.90;;;;;;5067697;28;20070;-70
2023/08/02 00:59:48;;;;;;;1.55;0.55;;;15.40;99.90;;;;;;5067088;28;20403;-71
2023/08/02 01:02:14;;;;;;;3.50;0.60;;;15.40;99.90;;;;;;5051413;28;20528;-71
2023/08/02 01:04:40;;;;;;;1.15;0.60;;;15.40;99.90;;;;;;5067699;28;20041;-70
2023/08/02 01:07:30;;;;;;;3.25;0.32;;;15.40;99.90;;;;;;5067647;28;20405;-71
2023/08/02 01:10:11;;;;;;;2.40;0.85;;;15.40;99.90;;;;;;5066165;28;20116;-70
2023/08/02 01:12:41;;;;;;;1.67;0.63;;;15.40;99.90;;;;;;5065139;28;20547;-71
2023/08/02 01:15:08;;;;;;;4.38;0.57;;;15.40;99.90;;;;;;5066938;28;20079;-70
2023/08/02 01:17:35;;;;;;;3.33;0.45;;;15.30;99.90;;;;;;5067071;28;20052;-71
2023/08/02 01:20:03;;;;;;;6.00;0.70;;;15.40;99.90;;;;;;5066887;28;20422;-71
2023/08/02 01:22:29;;;;;;;1.10;0.57;;;15.40;99.90;;;;;;5049810;28;20080;-71
2023/08/02 01:24:56;;;;;;;2.72;0.50;;;15.40;99.90;;;;;;5067323;28;20107;-71
2023/08/02 01:27:25;;;;;;;4.65;0.73;;;15.40;99.90;;;;;;5050168;28;20036;-71
2023/08/02 01:29:53;;;;;;;3.05;0.65;;;15.40;99.90;;;;;;5066577;28;20138;-71
2023/08/02 01:32:21;;;;;;;2.08;0.60;;;15.30;99.90;;;;;;5050397;28;20512;-71
2023/08/02 01:34:48;;;;;;;3.58;0.57;;;15.40;99.90;;;;;;5066915;28;20040;-71
2023/08/02 01:37:14;;;;;;;3.05;0.50;;;15.40;99.90;;;;;;5068430;28;20049;-71
2023/08/02 01:39:40;;;;;;;0.60;0.52;;;15.30;99.90;;;;;;5066566;28;20508;-71
2023/08/02 01:42:06;;;;;;;4.80;0.77;;;15.30;99.90;;;;;;5066857;28;20055;-71
2023/08/02 01:44:32;;;;;;;3.08;0.77;;;15.40;99.90;;;;;;5065895;28;20530;-70
2023/08/02 01:46:58;;;;;;;1.60;0.57;;;15.40;99.90;;;;;;5066714;28;20261;-70
2023/08/02 01:49:23;;;;;;;3.30;0.98;;;15.40;99.90;;;;;;5050047;28;20118;-70
2023/08/02 01:51:49;;;;;;;2.40;0.60;;;15.40;99.90;;;;;;5067579;28;20041;-71
2023/08/02 01:54:15;;;;;;;2.60;0.73;;;15.40;99.90;;;;;;5067879;28;20060;-71
2023/08/02 01:56:41;;;;;;;2.53;0.75;;;15.40;99.90;;;;;;5067808;28;20120;-71
2023/08/02 01:59:06;;;;;;;3.17;0.88;;;15.40;99.90;;;;;;5066799;28;20478;-71
2023/08/02 02:01:32;;;;;;;2.65;0.85;;;15.40;99.90;;;;;;5065788;28;20089;-71
2023/08/02 02:03:58;;;;;;;2.72;0.80;;;15.40;99.90;;;;;;5049908;28;20421;-71
2023/08/02 02:06:24;;;;;;;4.35;0.93;;;15.40;99.90;;;;;;5066113;28;20063;-71
2023/08/02 02:08:50;;;;;;;3.28;1.13;;;15.40;99.90;;;;;;5050000;28;20040;-71
2023/08/02 02:11:16;;;;;;;4.35;1.13;;;15.30;99.90;;;;;;5065653;28;20547;-71
2023/08/02 02:13:41;;;;;;;7.60;1.40;;;15.30;99.90;;;;;;5066297;28;20053;-70
2023/08/02 02:16:07;;;;;;;6.00;1.08;;;15.30;99.90;;;;;;5065653;28;20509;-70
2023/08/02 02:18:33;;;;;;;4.82;1.25;;;15.40;99.90;;;;;;5049263;28;20455;-71
2023/08/02 02:20:58;;;;;;;6.70;1.30;;;15.40;99.90;;;;;;5065972;28;20048;-71
2023/08/02 02:23:24;;;;;;;4.47;1.20;;;15.40;99.90;;;;;;5048650;28;20052;-71
2023/08/02 02:25:50;;;;;;;4.32;1.30;;;15.30;99.90;;;;;;5066391;28;20072;-71
2023/08/02 02:28:19;;;;;;;6.18;1.20;;;15.30;99.90;;;;;;5048980;28;20462;-70
2023/08/02 02:30:44;;;;;;;6.38;1.23;;;15.30;99.90;;;;;;5049669;28;20052;-71
2023/08/02 02:33:10;;;;;;;5.85;1.30;;;15.30;99.90;;;;;;5064297;28;20040;-70
2023/08/02 02:35:36;;;;;;;4.28;1.45;;;15.20;99.90;;;;;;5065473;28;20490;-71
2023/08/02 02:38:02;;;;;;;7.72;1.70;;;15.30;99.90;;;;;;5065599;28;20155;-71
2023/08/02 02:40:28;;;;;;;16.08;1.75;;;15.20;99.90;;;;;;5065776;28;20059;-71
2023/08/02 02:42:53;;;;;;;3.17;1.58;;;15.30;99.90;;;;;;5065075;28;20431;-71
2023/08/02 02:45:19;;;;;;;3.20;1.20;;;15.30;99.90;;;;;;5064081;28;20075;-71
2023/08/02 02:47:45;;;;;;;4.50;1.10;;;15.20;99.90;;;;;;5065636;28;20045;-71
2023/08/02 02:50:10;;;;;;;3.20;1.20;;;15.30;99.90;;;;;;5038838;28;20045;-71
2023/08/02 02:52:36;;;;;;;4.22;1.20;;;15.30;99.90;;;;;;5066791;28;20461;-71
2023/08/02 02:55:02;;;;;;;7.75;1.38;;;15.20;99.90;;;;;;5048297;28;21386;-71
2023/08/02 02:57:28;;;;;;;3.60;1.40;;;15.30;99.90;;;;;;5064106;28;20482;-71
2023/08/02 02:59:53;;;;;;;4.15;1.25;;;15.30;99.90;;;;;;5048628;28;20087;-71
2023/08/02 03:02:19;;;;;;;4.45;1.65;;;15.30;99.90;;;;;;5048144;28;20128;-71
2023/08/02 03:04:45;;;;;;;7.30;1.50;;;15.30;99.90;;;;;;5065785;28;20044;-71
2023/08/02 03:07:10;;;;;;;4.57;1.48;;;15.30;99.90;;;;;;5065314;28;20043;-71
2023/08/02 03:09:36;;;;;;;3.92;1.20;;;15.30;99.90;;;;;;5065291;28;20514;-71
2023/08/02 03:12:02;;;;;;;6.60;1.38;;;15.20;99.90;;;;;;5064730;28;20593;-71
2023/08/02 03:14:28;;;;;;;9.43;1.73;;;15.20;99.90;;;;;;5048460;28;20064;-71
2023/08/02 03:16:54;;;;;;;10.10;1.95;;;15.20;99.90;;;;;;5048347;28;20055;-71
2023/08/02 03:19:20;;;;;;;8.10;1.45;;;15.20;99.90;;;;;;5047731;28;20060;-71
2023/08/02 03:21:46;;;;;;;4.13;1.60;;;15.20;99.90;;;;;;5065374;28;20052;-71
2023/08/02 03:24:12;;;;;;;4.97;1.73;;;15.20;99.90;;;;;;5064749;28;20449;-71
2023/08/02 03:26:37;;;;;;;5.25;1.70;;;15.20;99.90;;;;;;5065374;28;20067;-71
2023/08/02 03:29:03;;;;;;;4.32;1.42;;;15.20;99.90;;;;;;5065493;28;20041;-71
2023/08/02 03:31:29;;;;;;;7.10;1.52;;;15.10;99.90;;;;;;5047652;28;20498;-71
2023/08/02 03:33:55;;;;;;;6.55;1.80;;;15.20;99.90;;;;;;5064953;28;20139;-71
2023/08/02 03:36:20;;;;;;;6.57;1.85;;;15.10;99.90;;;;;;5063132;28;20060;-71
2023/08/02 03:38:46;;;;;;;11.75;1.38;;;15.20;99.90;;;;;;5065499;28;20449;-71
2023/08/02 03:41:12;;;;;;;3.60;1.83;;;15.10;99.90;;;;;;5063939;28;20091;-71
2023/08/02 03:43:38;;;;;;;8.35;1.70;;;15.10;99.90;;;;;;5064824;28;20044;-71
2023/08/02 03:46:03;;;;;;;7.45;1.92;;;15.10;99.90;;;;;;5048108;28;20044;-71
2023/08/02 03:48:31;;;;;;;7.97;1.52;;;15.10;99.90;;;;;;5047854;28;20040;-71
2023/08/02 03:50:57;;;;;;;7.05;1.90;;;15.10;99.90;;;;;;5048442;28;20567;-71
2023/08/02 03:53:27;;;;;;;6.60;1.70;;;15.20;99.90;;;;;;5063933;28;20064;-72
2023/08/02 03:55:53;;;;;;;8.63;1.85;;;15.10;99.90;;;;;;5065244;28;20053;-71
2023/08/02 03:58:19;;;;;;;5.47;1.58;;;15.10;99.90;;;;;;5063838;28;20040;-71
2023/08/02 04:00:45;;;;;;;6.18;1.95;;;15.10;99.90;;;;;;5064608;28;20154;-71
2023/08/02 04:03:11;;;;;;;8.55;1.88;;;15.10;99.90;;;;;;5063878;28;20048;-71
2023/08/02 04:05:38;;;;;;;5.88;1.52;;;15.10;99.90;;;;;;5064763;28;20037;-71
2023/08/02 04:08:03;;;;;;;7.35;1.70;;;15.10;99.90;;;;;;5049185;28;20195;-71
2023/08/02 04:10:29;;;;;;;6.10;1.83;;;15.10;99.90;;;;;;5051151;28;20049;-71
2023/08/02 04:12:55;;;;;;;5.20;1.70;;;15.10;99.90;;;;;;5055087;28;20048;-71
2023/08/02 04:15:20;;;;;;;6.18;1.73;;;15.00;99.90;;;;;;5067651;28;20407;-71
2023/08/02 04:17:49;;;;;;;13.13;1.95;;;15.00;99.90;;;;;;5068169;28;20181;-71
2023/08/02 04:20:14;;;;;;;11.43;1.92;;;15.10;99.90;;;;;;5067258;28;20402;-72
2023/08/02 04:22:40;;;;;;;8.20;1.98;;;15.10;99.90;;;;;;5068808;28;20041;-71
2023/08/02 04:25:06;;;;;;;9.38;1.80;;;15.10;99.90;;;;;;5067979;28;20422;-71
2023/08/02 04:27:32;;;;;;;9.48;1.92;;;15.10;99.90;;;;;;5067566;28;20067;-71
2023/08/02 04:29:58;;;;;;;11.68;2.53;;;15.10;99.90;;;;;;5051350;28;20464;-71
2023/08/02 04:32:24;;;;;;;10.45;2.45;;;15.10;99.90;;;;;;5067559;28;20106;-71
2023/08/02 04:34:49;;;;;;;8.13;2.20;;;15.20;99.90;;;;;;5069801;28;20406;-71
2023/08/02 04:37:15;;;;;;;6.10;2.35;;;15.10;99.90;;;;;;5066565;28;20060;-71
2023/08/02 04:39:41;;;;;;;11.75;2.28;;;15.20;99.90;;;;;;5068269;28;20414;-71
2023/08/02 04:42:07;;;;;;;11.80;2.85;;;15.10;99.90;;;;;;5067760;28;20044;-71
2023/08/02 04:44:32;;;;;;;11.68;2.22;;;15.20;99.90;;;;;;5050827;28;20033;-71
2023/08/02 04:46:58;;;;;;;12.73;2.05;;;15.20;99.90;;;;;;5050800;28;20048;-72
2023/08/02 04:49:24;;;;;;;12.25;2.78;;;15.20;99.90;;;;;;5067129;28;20118;-72
2023/08/02 04:51:49;;;;;;;11.40;2.67;;;15.30;99.90;;;;;;5067835;28;20036;-71
2023/08/02 04:54:16;;;;;;;18.35;3.28;;;15.20;99.90;;;;;;5017660;28;20135;-71
2023/08/02 04:56:42;;;;;;;6.97;1.88;;;15.30;99.90;;;;;;5067866;28;20047;-71
2023/08/02 04:59:10;;;;;;;9.90;2.63;;;15.30;99.90;;;;;;5066886;28;20040;-71
2023/08/02 05:01:36;;;;;;;16.98;3.03;;;15.30;99.90;;;;;;5068885;28;20074;-71
2023/08/02 05:04:02;;;;;;;14.18;2.47;;;15.30;99.90;;;;;;5067543;28;20579;-71
2023/08/02 05:06:27;;;;;;;10.73;2.80;;;15.20;99.90;;;;;;5066961;28;20045;-71
2023/08/02 05:08:53;;;;;;;10.88;2.80;;;15.30;99.90;;;;;;5067369;28;20049;-72
2023/08/02 05:11:19;;;;;;;17.75;3.17;;;15.20;99.90;;;;;;5066891;28;20588;-71
2023/08/02 05:13:44;;;;;;;8.68;2.50;;;15.30;99.90;;;;;;5067836;28;20048;-72
2023/08/02 05:16:14;;;;;;;17.90;2.85;;;15.20;99.90;;;;;;5050245;28;20044;-71
2023/08/02 05:18:40;;;;;;;10.05;2.55;;;15.20;99.90;;;;;;5066704;28;20052;-71
2023/08/02 05:21:16;;;;;;;14.98;3.20;;;15.30;99.90;;;;;;5066310;28;20040;-71
2023/08/02 05:23:43;;;;;;;8.27;2.65;;;15.20;99.90;;;;;;5067268;28;20475;-71
2023/08/02 05:26:09;;;;;;;7.45;2.28;;;15.20;99.90;;;;;;5066920;28;20098;-71
2023/08/02 05:28:36;;;;;;;14.32;2.78;;;15.30;99.90;;;;;;5066833;28;20048;-71
2023/08/02 05:31:02;;;;;;;14.65;2.75;;;15.20;99.90;;;;;;5065660;28;20049;-71
2023/08/02 05:33:29;;;;;;;15.02;2.63;;;15.30;99.90;;;;;;5065973;28;20044;-71
2023/08/02 05:35:54;;;;;;;7.68;2.85;;;15.20;99.90;;;;;;5066363;28;20078;-71
2023/08/02 05:38:22;;;;;;;13.30;3.40;;;15.30;99.90;;;;;;5066775;28;20398;-71
2023/08/02 05:40:47;;;;;;;11.57;2.60;;;15.30;99.90;;;;;;5066453;28;20087;-72
2023/08/02 05:43:13;;;;;;;15.95;3.67;;;15.40;99.90;;;;;;5066459;28;20090;-71
2023/08/02 05:45:39;;;;;;;7.70;2.72;;;15.30;99.90;;;;;;5049292;28;20080;-71
2023/08/02 05:48:05;;;;;;;10.13;3.22;;;15.30;99.90;;;;;;5066839;28;20347;-71
2023/08/02 05:50:31;;;;;;;14.30;3.00;;;15.30;99.90;;;;;;5053089;28;20044;-71
2023/08/02 05:52:57;;;;;;;10.00;2.53;;;15.30;99.90;;;;;;5050465;28;20123;-72
2023/08/02 05:55:23;;;;;;;7.32;2.78;;;15.30;99.90;;;;;;5066077;28;20193;-72
2023/08/02 05:57:48;;;;;;;13.68;2.72;;;15.50;99.90;;;;;;5066616;28;20048;-71
2023/08/02 06:00:15;;;;;;;10.13;2.70;;;15.50;99.90;;;;;;5035977;28;20040;-70
2023/08/02 06:02:41;;;;;;;9.55;3.40;;;15.60;99.90;;;;;;5048088;28;20043;-71
2023/08/02 06:05:07;;;;;;;9.73;3.00;;;15.50;99.90;;;;;;5065719;28;20044;-71
2023/08/02 06:07:33;;;;;;;14.95;3.10;;;15.60;99.90;;;;;;5061152;28;20033;-71
2023/08/02 06:09:59;;;;;;;10.50;3.25;;;15.70;99.90;;;;;;5065981;28;20060;-70
2023/08/02 06:12:25;;;;;;;12.90;3.58;;;15.60;99.90;;;;;;5065453;28;20445;-71
2023/08/02 06:14:51;;;;;;;10.65;3.40;;;15.70;99.90;;;;;;5066136;28;20048;-71
2023/08/02 06:17:16;;;;;;;19.95;3.63;;;15.70;99.90;;;;;;5025847;28;20135;-72
2023/08/02 06:19:42;;;;;;;11.98;3.47;;;15.70;99.90;;;;;;5065316;28;20032;-72
2023/08/02 06:22:09;;;;;;;6.38;2.95;;;15.70;99.90;;;;;;5032320;28;20047;-72
2023/08/02 06:24:34;;;;;;;7.07;3.30;;;15.80;99.90;;;;;;5048715;28;20055;-72
2023/08/02 06:27:00;;;;;;;14.15;4.43;;;15.90;99.90;;;;;;5065174;28;20405;-72
2023/08/02 06:29:26;;;;;;;11.93;3.25;;;16.00;99.90;;;;;;5064707;28;20049;-72
2023/08/02 06:31:52;;;;;;;6.95;3.20;;;15.90;99.90;;;;;;5048248;28;20044;-72
2023/08/02 06:34:18;;;;;;;11.32;2.65;;;16.00;99.90;;;;;;5061701;28;20118;-72
2023/08/02 06:36:43;;;;;;;7.63;3.00;;;16.00;99.90;;;;;;5034757;28;20053;-72
2023/08/02 06:39:09;;;;;;;6.03;3.17;;;16.00;99.90;;;;;;5048864;28;20414;-73
2023/08/02 06:41:35;;;;;;;11.75;3.40;;;16.00;99.90;;;;;;5047772;28;20044;-72
2023/08/02 06:44:01;;;;;;;14.38;3.15;;;16.10;99.90;;;;;;5064902;28;20040;-72
2023/08/02 06:46:27;;;;;;;9.70;2.75;;;16.00;99.90;;;;;;5064970;28;20040;-72
2023/08/02 06:48:52;;;;;;;9.65;3.15;;;16.10;99.90;;;;;;5065202;28;20052;-72
2023/08/02 06:51:18;;;;;;;13.35;4.15;;;16.20;99.90;;;;;;5048082;28;20076;-72
2023/08/02 06:53:44;;;;;;;8.65;3.35;;;16.20;99.90;;;;;;5065434;28;20044;-72
2023/08/02 06:56:15;;;;;;;13.38;3.33;;;16.30;99.90;;;;;;5047813;28;20128;-72
2023/08/02 06:58:41;;;;;;;6.30;2.85;;;16.30;99.90;;;;;;5043796;28;20049;-72
2023/08/02 07:01:14;;;;;;;10.98;3.10;;;16.30;99.90;;;;;;5066128;28;20045;-72
2023/08/02 07:03:40;;;;;;;10.10;2.88;;;16.50;99.90;;;;;;5044483;28;20387;-73
2023/08/02 07:06:14;;;;;;;8.27;2.65;;;16.40;99.90;;;;;;5065150;28;20074;-73
2023/08/02 07:08:41;;;;;;;7.60;2.50;;;16.40;99.90;;;;;;5061056;28;20486;-72
2023/08/02 07:11:07;;;;;;;15.60;2.70;;;16.50;99.90;;;;;;5064930;28;20044;-72
2023/08/02 07:13:38;;;;;;;11.88;3.15;;;16.40;99.90;;;;;;5064948;28;20052;-73
2023/08/02 07:16:04;;;;;;;4.97;2.45;;;16.50;99.90;;;;;;5064387;28;20090;-73
2023/08/02 07:18:30;;;;;;;10.70;2.80;;;16.60;99.90;;;;;;5064985;28;20048;-72
2023/08/02 07:20:56;;;;;;;7.43;2.50;;;16.60;99.90;;;;;;5047185;28;20048;-72
2023/08/02 07:23:22;;;;;;;5.55;2.90;;;16.60;99.90;;;;;;5065318;28;20052;-72
2023/08/02 07:25:48;;;;;;;8.27;2.88;;;16.60;99.90;;;;;;5063522;28;20514;-73
2023/08/02 07:28:14;;;;;;;7.43;2.67;;;16.60;99.90;;;;;;5065613;28;20479;-72
2023/08/02 07:30:40;;;;;;;10.10;2.63;;;16.60;99.90;;;;;;5045471;28;20529;-72
2023/08/02 07:33:05;;;;;;;11.25;2.60;;;16.60;99.90;;;;;;5047544;28;20040;-72
2023/08/02 07:35:36;;;;;;;8.52;3.10;;;16.70;99.90;;;;;;5064388;28;20056;-72
2023/08/02 07:38:02;;;;;;;14.05;2.78;;;16.60;99.90;;;;;;5047197;28;20061;-72
2023/08/02 07:40:28;;;;;;;9.98;2.53;;;16.70;99.90;;;;;;5047823;28;20048;-72
2023/08/02 07:42:54;;;;;;;6.68;2.65;;;16.60;99.90;;;;;;5047992;28;20048;-73
2023/08/02 07:45:20;;;;;;;5.45;2.45;;;16.60;99.90;;;;;;5052563;28;20075;-72
2023/08/02 07:47:45;;;;;;;8.77;2.70;;;16.70;99.90;;;;;;5067475;28;20060;-72
2023/08/02 07:50:11;;;;;;;9.90;2.35;;;16.70;99.90;;;;;;5069144;28;20119;-72
2023/08/02 07:52:37;;;;;;;9.82;2.92;;;16.70;99.90;;;;;;5068673;28;20058;-73
2023/08/02 07:55:03;;;;;;;5.25;2.47;;;16.70;99.90;;;;;;5042642;28;20455;-72
2023/08/02 07:57:33;;;;;;;4.35;2.03;;;16.70;99.90;;;;;;5068243;28;20048;-72
2023/08/02 07:59:59;;;;;;;6.13;2.20;;;16.70;99.90;;;;;;5051111;28;20498;-73
2023/08/02 08:02:25;;;;;;;11.32;2.83;;;16.70;99.90;;;;;;5068779;28;20044;-72
2023/08/02 08:04:52;;;;;;;11.35;2.53;;;16.70;99.90;;;;;;5051385;28;20135;-72
2023/08/02 08:07:18;;;;;;;10.25;2.60;;;16.70;99.90;;;;;;5068118;28;20052;-72
2023/08/02 08:09:44;;;;;;;5.95;2.55;;;16.70;99.90;;;;;;5067509;28;20052;-72
2023/08/02 08:12:10;;;;;;;11.02;2.53;;;16.70;99.90;;;;;;5068217;28;20131;-72
2023/08/02 08:14:36;;;;;;;12.30;2.33;;;16.70;99.90;;;;;;5067748;28;20047;-72
2023/08/02 08:17:02;;;;;;;12.18;2.22;;;16.60;99.90;;;;;;5045955;28;20379;-72
2023/08/02 08:19:28;;;;;;;7.15;2.40;;;16.70;99.90;;;;;;5049695;28;20341;-72
2023/08/02 08:21:54;;;;;;;5.50;2.22;;;16.70;99.90;;;;;;5053120;28;20093;-71
2023/08/02 08:24:20;;;;;;;5.53;1.80;;;16.70;99.90;;;;;;5063593;28;20044;-72
2023/08/02 08:26:46;;;;;;;4.28;2.00;;;16.70;99.90;;;;;;5050660;28;20047;-71
2023/08/02 08:29:13;;;;;;;7.00;1.80;;;16.70;99.90;;;;;;5069475;28;20405;-72
2023/08/02 08:31:38;;;;;;;6.60;2.13;;;16.70;99.90;;;;;;5055521;28;20190;-72
2023/08/02 08:34:04;;;;;;;7.50;2.88;;;16.60;99.90;;;;;;5067374;28;20044;-72
2023/08/02 08:36:30;;;;;;;8.27;1.70;;;16.60;99.90;;;;;;5049732;28;20108;-71
2023/08/02 08:38:56;;;;;;;7.47;2.30;;;16.60;99.90;;;;;;5061734;28;20048;-72
2023/08/02 08:41:22;;;;;;;4.75;1.83;;;16.60;99.90;;;;;;5066271;28;20053;-72
2023/08/02 08:43:48;;;;;;;5.50;2.10;;;16.60;99.90;;;;;;5049188;28;20046;-72
2023/08/02 08:46:15;;;;;;;4.47;2.20;;;16.60;99.90;;;;;;5067626;28;20375;-73
2023/08/02 08:48:41;;;;;;;9.93;2.17;;;16.60;99.90;;;;;;5050689;28;20041;-72
2023/08/02 08:51:10;;;;;;;4.57;2.35;;;16.50;99.90;;;;;;5050227;28;20091;-72
2023/08/02 08:53:36;;;;;;;11.80;2.17;;;16.50;99.90;;;;;;5066944;28;20048;-72
2023/08/02 08:56:04;;;;;;;5.18;2.45;;;16.50;99.90;;;;;;5063141;28;20048;-72
2023/08/02 08:58:35;;;;;;;6.85;2.15;;;16.30;99.90;;;;;;5067584;28;20111;-71
2023/08/02 09:01:04;;;;;;;2.95;2.05;;;16.30;99.90;;;;;;5066518;28;20056;-71
2023/08/02 09:03:30;;;;;;;3.97;2.13;;;16.20;99.90;;;;;;5051307;28;20737;-71
2023/08/02 09:06:01;;;;;;;6.00;2.42;;;16.20;99.90;;;;;;5065620;28;20040;-72
2023/08/02 09:08:27;;;;;;;4.10;2.13;;;16.20;99.90;;;;;;5071430;28;20048;-72
2023/08/02 09:10:53;;;;;;;7.93;2.17;;;16.10;99.90;;;;;;5065398;28;20045;-73
2023/08/02 09:13:23;;;;;;;4.15;1.98;;;16.00;99.90;;;;;;5050148;28;20040;-72
2023/08/02 09:16:05;;;;;;;4.55;2.15;;;15.90;99.90;;;;;;5061536;28;20055;-73
2023/08/02 09:18:42;;;;;;;6.90;2.10;;;15.90;99.90;;;;;;5063315;28;20048;-73
2023/08/02 09:21:11;;;;;;;7.43;2.05;;;15.80;99.90;;;;;;5066091;28;20049;-72
2023/08/02 09:23:36;;;;;;;4.22;1.58;;;15.70;99.90;;;;;;5066516;28;20445;-72
2023/08/02 09:26:12;;;;;;;7.50;1.67;;;15.70;99.90;;;;;;5065987;28;20140;-72
2023/08/02 09:28:38;;;;;;;4.82;1.55;;;15.70;99.90;;;;;;5049450;28;20131;-72
2023/08/02 09:31:17;;;;;;;5.05;1.67;;;15.60;99.90;;;;;;5066068;28;20185;-71
2023/08/02 09:33:54;;;;;;;4.38;1.95;;;15.60;99.90;;;;;;5049597;28;20055;-72
2023/08/02 09:36:34;;;;;;;4.70;2.10;;;15.50;99.90;;;;;;5063549;28;20044;-72
2023/08/02 09:39:01;;;;;;;8.10;1.75;;;15.50;99.90;;;;;;5065538;28;20057;-71
2023/08/02 09:41:28;;;;;;;3.67;1.88;;;15.40;99.90;;;;;;5065859;28;20044;-72
2023/08/02 09:43:54;;;;;;;6.55;1.95;;;15.40;99.90;;;;;;5065361;28;20044;-71
2023/08/02 09:46:30;;;;;;;6.68;2.13;;;15.50;99.90;;;;;;5066865;28;20037;-71
2023/08/02 09:48:57;;;;;;;3.88;1.90;;;15.50;99.90;;;;;;5049688;28;20444;-72
2023/08/02 09:51:44;;;;;;;5.68;1.70;;;15.50;99.90;;;;;;5065899;28;20044;-72
2023/08/02 09:54:12;;;;;;;3.13;1.45;;;15.50;99.90;;;;;;5049031;28;20063;-73
2023/08/02 09:56:40;;;;;;;5.75;2.15;;;15.60;99.90;;;;;;5066036;28;20179;-73
2023/08/02 09:59:07;;;;;;;4.38;1.65;;;15.60;99.90;;;;;;5066318;28;20040;-74
2023/08/02 10:01:34;;;;;;;7.32;2.60;;;15.60;99.90;;;;;;5065316;28;20045;-72
2023/08/02 10:04:08;;;;;;;12.25;2.08;;;15.70;99.90;;;;;;5066431;28;20344;-73
2023/08/02 10:06:38;;;;;;;6.03;1.60;;;15.70;99.90;;;;;;5065185;28;20474;-74
2023/08/02 10:09:07;;;;;;;4.25;2.35;;;15.70;99.90;;;;;;5054201;28;20071;-74
2023/08/02 10:11:47;;;;;;;7.72;2.03;;;15.90;99.90;;;;;;5058370;28;20041;-72
2023/08/02 10:14:13;;;;;;;7.68;2.45;;;15.80;99.90;;;;;;5061925;28;20101;-72
2023/08/02 10:16:41;;;;;;;5.57;2.25;;;15.90;99.90;;;;;;5049553;28;20048;-73
2023/08/02 10:19:08;;;;;;;5.10;2.33;;;16.00;99.90;;;;;;5064512;28;20138;-72
2023/08/02 10:21:35;;;;;;;8.32;2.15;;;15.90;99.90;;;;;;5066519;28;20138;-71
2023/08/02 10:24:01;;;;;;;4.75;2.10;;;16.00;99.90;;;;;;5048587;28;20075;-72
2023/08/02 10:26:29;;;;;;;5.45;1.75;;;16.00;99.90;;;;;;5065649;28;20093;-73
2023/08/02 10:28:57;;;;;;;2.97;1.83;;;16.00;99.90;;;;;;5066011;28;20052;-73
2023/08/02 10:31:23;;;;;;;5.65;2.13;;;16.10;99.90;;;;;;5065009;28;20044;-73
2023/08/02 10:33:49;;;;;;;13.88;2.17;;;16.00;99.90;;;;;;5049782;28;20190;-73
2023/08/02 10:36:15;;;;;;;2.95;1.88;;;16.00;99.90;;;;;;5050157;28;20123;-73
2023/08/02 10:38:41;;;;;;;4.30;1.92;;;16.00;99.90;;;;;;5066093;28;20463;-73
2023/08/02 10:41:13;;;;;;;5.15;2.30;;;16.00;99.90;;;;;;5064990;28;20118;-73
2023/08/02 10:43:54;;;;;;;3.88;2.42;;;16.00;99.90;;;;;;5065257;28;20051;-73
2023/08/02 10:46:26;;;;;;;8.48;2.65;;;15.90;99.90;;;;;;5059116;28;20135;-72
2023/08/02 10:48:52;;;;;;;5.63;2.10;;;16.00;99.90;;;;;;5048422;28;20047;-71
2023/08/02 10:51:27;;;;;;;5.10;2.33;;;16.00;99.90;;;;;;5064138;28;20040;-72
2023/08/02 10:54:13;;;;;;;7.93;2.38;;;16.00;99.90;;;;;;5056223;28;20091;-70
2023/08/02 10:56:54;;;;;;;4.82;2.25;;;16.10;99.90;;;;;;5064430;28;20159;-71
2023/08/02 10:59:23;;;;;;;5.28;2.17;;;16.20;99.90;;;;;;5064714;28;20132;-72
2023/08/02 11:02:00;;;;;;;1.73;1.60;;;16.30;99.90;;;;;;5065024;28;20080;-71
2023/08/02 11:04:28;;;;;;;3.40;1.80;;;16.50;99.90;;;;;;5055929;28;20150;-71
2023/08/02 11:06:53;;;;;;;3.85;1.60;;;16.50;99.90;;;;;;5063376;28;20049;-72
2023/08/02 11:09:32;;;;;;;3.42;1.83;;;16.50;99.90;;;;;;5042592;28;20122;-71
2023/08/02 11:12:19;;;;;;;3.58;1.90;;;16.40;99.90;;;;;;5056294;28;20044;-72
2023/08/02 11:14:50;;;;;;;2.10;1.70;;;16.50;99.90;;;;;;5062583;28;20037;-72
2023/08/02 11:17:18;;;;;;;5.57;1.67;;;16.40;99.90;;;;;;5063021;28;20568;-72
2023/08/02 11:19:51;;;;;;;1.90;1.58;;;16.40;99.90;;;;;;5063337;28;20527;-72
2023/08/02 11:22:18;;;;;;;3.17;1.52;;;16.40;99.90;;;;;;5062729;28;20580;-73
2023/08/02 11:24:56;;;;;;;2.55;1.85;;;16.50;99.90;;;;;;5046725;28;20110;-74
2023/08/02 11:27:24;;;;;;;3.85;1.42;;;16.50;99.90;;;;;;5047351;28;20044;-73
2023/08/02 11:29:57;;;;;;;2.85;1.45;;;16.50;99.90;;;;;;5048114;28;20087;-73
2023/08/02 11:32:23;;;;;;;2.55;1.17;;;16.60;99.90;;;;;;5064026;28;20053;-74
2023/08/02 11:34:49;;;;;;;2.55;1.40;;;16.60;99.90;;;;;;5064893;28;20375;-74
2023/08/02 11:37:15;;;;;;;5.30;1.48;;;16.60;99.90;;;;;;5062379;28;20054;-74
2023/08/02 11:39:58;;;;;;;3.53;1.00;;;16.60;99.90;;;;;;5064676;28;20082;-75
2023/08/02 11:42:25;;;;;;;1.98;0.88;;;16.60;99.90;;;;;;5037998;28;20044;-75
2023/08/02 11:44:51;;;;;;;1.77;1.13;;;16.60;99.90;;;;;;5060525;28;20044;-75
2023/08/02 11:47:17;;;;;;;3.03;1.23;;;16.60;99.90;;;;;;5030465;28;20457;-75
2023/08/02 11:49:56;;;;;;;0.65;0.57;;;16.60;99.90;;;;;;5047232;28;20131;-74
2023/08/02 11:52:30;;;;;;;2.30;1.02;;;16.60;99.90;;;;;;5064613;28;20054;-74
2023/08/02 11:54:57;;;;;;;1.33;0.98;;;16.60;99.90;;;;;;5063879;28;20048;-76
2023/08/02 11:57:24;;;;;;;1.08;1.08;;;16.50;99.90;;;;;;5048804;28;20044;-76
2023/08/02 11:59:52;;;;;;;1.48;1.00;;;16.50;99.90;;;;;;5057396;28;20037;-76
2023/08/02 12:02:29;;;;;;;2.83;1.00;;;16.60;99.90;;;;;;5061429;28;20041;-76
2023/08/02 12:04:56;;;;;;;0.93;0.90;;;16.60;99.90;;;;;;5064607;28;20403;-75
2023/08/02 12:07:31;;;;;;;1.48;0.80;;;16.70;99.90;;;;;;5063507;28;20125;-75
2023/08/02 12:09:57;;;;;;;5.35;0.85;;;16.80;99.90;;;;;;5041119;28;20078;-75
2023/08/02 12:12:29;;;;;;;1.75;0.73;;;16.70;99.90;;;;;;5059908;28;20044;-75
2023/08/02 12:14:55;;;;;;;1.98;0.63;;;16.80;99.90;;;;;;5064841;28;20052;-74
2023/08/02 12:17:22;;;;;;;1.17;0.82;;;16.90;99.90;;;;;;5047593;28;20041;-73
2023/08/02 12:19:49;;;;;;;2.28;0.60;;;16.90;99.90;;;;;;5047027;28;20082;-74
2023/08/02 12:22:16;;;;;;;0.65;0.65;;;16.80;99.90;;;;;;5061070;28;20556;-74
2023/08/02 12:24:42;;;;;;;1.85;0.77;;;16.70;99.90;;;;;;5063141;28;20044;-73
2023/08/02 12:27:15;;;;;;;0.60;0.60;;;16.80;99.90;;;;;;5066191;28;20057;-74
2023/08/02 12:29:42;;;;;;;1.05;0.40;;;16.80;99.90;;;;;;5049073;28;20055;-73
2023/08/02 12:32:09;;;;;;;0.50;0.50;;;16.80;99.90;;;;;;5067920;28;20048;-74
2023/08/02 12:34:38;;;;;;;0.50;0.47;;;16.80;99.90;;;;;;5067428;28;20085;-74
2023/08/02 12:37:04;;;;;;;0.88;0.50;;;17.00;99.90;;;;;;5051198;28;20574;-73
2023/08/02 12:39:30;;;;;;;0.65;0.50;;;17.20;99.90;;;;;;5068094;28;20063;-74
2023/08/02 12:41:56;;;;;;;5.30;0.50;;;17.40;99.90;;;;;;5049987;28;20048;-72
2023/08/02 12:44:22;;;;;;;3.05;0.50;;;17.50;99.90;;;;;;5027399;28;20041;-73
2023/08/02 12:46:47;;;;;;;0.68;0.40;;;17.70;99.90;;;;;;5067229;28;20051;-72